createdAt,value
2019-05-19T00:00:25.844Z,40.00
2019-05-19T00:02:54.322Z,44.60
2019-05-19T00:05:22.839Z,42.70
2019-05-19T00:07:52.358Z,41.70
2019-05-19T00:10:20.792Z,41.13
2019-05-19T00:12:49.713Z,41.40
2019-05-19T00:15:18.153Z,41.73
2019-05-19T00:17:46.595Z,41.20
2019-05-19T00:20:16.177Z,40.77
2019-05-19T00:22:44.632Z,42.83
2019-05-19T00:25:13.506Z,41.97
2019-05-19T00:27:41.970Z,42.60
2019-05-19T00:30:10.937Z,40.67
2019-05-19T00:32:39.392Z,40.70
2019-05-19T00:35:08.130Z,39.93
2019-05-19T00:37:36.589Z,43.63
2019-05-19T00:40:06.653Z,40.93
2019-05-19T00:42:35.116Z,43.90
2019-05-19T00:45:07.993Z,43.43
2019-05-19T00:47:36.666Z,45.43
2019-05-19T00:50:08.721Z,46.90
2019-05-19T00:52:37.185Z,42.87
2019-05-19T00:55:06.383Z,46.23
2019-05-19T00:57:36.273Z,45.00
2019-05-19T01:00:08.126Z,45.27
2019-05-19T01:02:36.588Z,45.50
2019-05-19T01:05:10.022Z,44.80
2019-05-19T01:07:38.473Z,42.47
2019-05-19T01:10:09.926Z,45.10
2019-05-19T01:12:38.512Z,43.07
2019-05-19T01:15:08.520Z,42.37
2019-05-19T01:17:37.018Z,43.07
2019-05-19T01:20:06.813Z,43.13
2019-05-19T01:22:35.241Z,42.03
2019-05-19T01:25:05.049Z,43.10
2019-05-19T01:27:33.472Z,40.70
2019-05-19T01:30:01.937Z,41.43
2019-05-19T01:32:31.209Z,40.67
2019-05-19T01:34:59.690Z,36.97
2019-05-19T01:37:28.197Z,37.30
2019-05-19T01:39:56.688Z,35.90
2019-05-19T01:42:25.132Z,37.77
2019-05-19T01:44:53.580Z,34.30
2019-05-19T01:47:22.077Z,33.27
2019-05-19T01:49:50.514Z,33.70
2019-05-19T01:52:18.955Z,32.93
2019-05-19T01:54:47.537Z,33.40
2019-05-19T01:57:15.953Z,34.03
2019-05-19T01:59:44.397Z,33.97
2019-05-19T02:02:12.842Z,33.30
2019-05-19T02:04:41.290Z,34.67
2019-05-19T02:07:09.729Z,33.87
2019-05-19T02:09:38.173Z,28.77
2019-05-19T02:12:06.614Z,29.83
2019-05-19T02:14:35.053Z,29.07
2019-05-19T02:17:03.501Z,29.67
2019-05-19T02:19:31.925Z,30.10
2019-05-19T02:22:00.378Z,28.30
2019-05-19T02:24:28.805Z,27.83
2019-05-19T02:26:57.251Z,30.13
2019-05-19T02:29:25.691Z,29.67
2019-05-19T02:31:54.173Z,31.33
2019-05-19T02:34:22.621Z,28.73
2019-05-19T02:36:51.078Z,29.43
2019-05-19T02:39:19.530Z,28.53
2019-05-19T02:41:49.697Z,29.87
2019-05-19T02:44:20.276Z,29.37
2019-05-19T02:46:50.169Z,29.00
2019-05-19T02:49:19.141Z,29.07
2019-05-19T02:51:49.425Z,30.40
2019-05-19T02:54:18.659Z,26.37
2019-05-19T02:56:48.233Z,27.30
2019-05-19T02:59:18.202Z,25.50
2019-05-19T03:02:03.392Z,27.70
2019-05-19T03:04:32.217Z,25.63
2019-05-19T03:07:00.679Z,26.40
2019-05-19T03:09:29.120Z,24.70
2019-05-19T03:11:57.561Z,25.63
2019-05-19T03:14:26.260Z,23.50
2019-05-19T03:16:54.712Z,26.47
2019-05-19T03:19:23.205Z,27.10
2019-05-19T03:21:51.659Z,25.73
2019-05-19T03:24:20.115Z,24.33
2019-05-19T03:26:49.357Z,25.00
2019-05-19T03:29:19.475Z,23.03
2019-05-19T03:31:52.201Z,25.20
2019-05-19T03:34:20.703Z,23.67
2019-05-19T03:36:49.136Z,24.30
2019-05-19T03:39:17.574Z,24.37
2019-05-19T03:41:46.024Z,22.53
2019-05-19T03:44:14.466Z,23.37
2019-05-19T03:46:43.434Z,21.50
2019-05-19T03:49:11.881Z,23.03
2019-05-19T03:51:40.324Z,21.90
2019-05-19T03:54:08.762Z,22.40
2019-05-19T03:56:37.196Z,24.07
2019-05-19T03:59:05.652Z,22.80
2019-05-19T04:01:34.101Z,21.30
2019-05-19T04:04:02.626Z,19.80
2019-05-19T04:06:31.045Z,19.87
2019-05-19T04:08:59.487Z,19.40
2019-05-19T04:11:29.541Z,20.27
2019-05-19T04:13:58.009Z,21.53
2019-05-19T04:16:26.480Z,21.03
2019-05-19T04:18:54.930Z,21.37
2019-05-19T04:21:23.509Z,21.60
2019-05-19T04:23:51.968Z,19.13
2019-05-19T04:26:20.398Z,18.07
2019-05-19T04:28:48.842Z,20.17
2019-05-19T04:31:18.505Z,19.80
2019-05-19T04:33:46.997Z,21.70
2019-05-19T04:36:15.436Z,19.37
2019-05-19T04:38:43.885Z,20.33
2019-05-19T04:41:12.365Z,19.57
2019-05-19T04:43:40.838Z,22.17
2019-05-19T04:46:09.274Z,19.20
2019-05-19T04:48:37.738Z,16.77
2019-05-19T04:51:06.161Z,20.03
2019-05-19T04:53:34.610Z,18.87
2019-05-19T04:56:04.709Z,18.50
2019-05-19T04:58:33.243Z,19.40
2019-05-19T05:01:03.243Z,16.97
2019-05-19T05:03:31.682Z,18.60
2019-05-19T05:06:00.132Z,19.70
2019-05-19T05:08:30.657Z,17.80
2019-05-19T05:10:58.744Z,18.43
2019-05-19T05:13:27.501Z,17.50
2019-05-19T05:15:55.943Z,18.73
2019-05-19T05:18:24.369Z,19.50
2019-05-19T05:20:52.810Z,17.17
2019-05-19T05:23:21.270Z,19.00
2019-05-19T05:25:49.781Z,19.40
2019-05-19T05:28:18.221Z,19.50
2019-05-19T05:30:46.652Z,18.00
2019-05-19T05:33:15.094Z,17.17
2019-05-19T05:35:43.577Z,21.27
2019-05-19T05:38:12.069Z,18.33
2019-05-19T05:40:40.512Z,19.17
2019-05-19T05:43:08.946Z,16.90
2019-05-19T05:45:37.385Z,17.50
2019-05-19T05:48:05.819Z,17.87
2019-05-19T05:50:34.270Z,18.23
2019-05-19T05:53:02.728Z,17.73
2019-05-19T05:55:31.234Z,18.67
2019-05-19T05:57:59.717Z,18.37
2019-05-19T06:00:28.218Z,19.50
2019-05-19T06:02:56.654Z,19.07
2019-05-19T06:05:25.093Z,18.50
2019-05-19T06:07:55.602Z,17.17
2019-05-19T06:10:24.076Z,18.20
2019-05-19T06:12:52.526Z,18.17
2019-05-19T06:15:21.222Z,18.60
2019-05-19T06:17:49.676Z,17.43
2019-05-19T06:20:18.153Z,19.67
2019-05-19T06:22:56.056Z,19.97
2019-05-19T06:25:16.805Z,18.43
2019-05-19T06:27:47.713Z,17.70
2019-05-19T06:30:16.955Z,19.40
2019-05-19T06:32:50.399Z,18.23
2019-05-19T06:35:18.839Z,17.53
2019-05-19T06:37:47.432Z,18.17
2019-05-19T06:40:17.265Z,15.80
2019-05-19T06:42:45.721Z,17.00
2019-05-19T06:45:16.181Z,16.23
2019-05-19T06:47:44.858Z,16.40
2019-05-19T06:50:13.853Z,17.30
2019-05-19T06:52:42.345Z,16.87
2019-05-19T06:55:11.545Z,17.50
2019-05-19T06:57:40.047Z,17.80
2019-05-19T07:00:11.975Z,15.50
2019-05-19T07:02:40.513Z,16.43
2019-05-19T07:05:09.286Z,16.60
2019-05-19T07:07:39.152Z,16.47
2019-05-19T07:10:08.935Z,18.50
2019-05-19T07:12:37.545Z,18.53
2019-05-19T07:15:08.370Z,17.13
2019-05-19T07:17:36.844Z,18.20
2019-05-19T07:20:06.091Z,17.00
2019-05-19T07:22:37.448Z,16.60
2019-05-19T07:25:06.816Z,19.30
2019-05-19T07:27:35.788Z,16.20
2019-05-19T07:30:09.388Z,17.80
2019-05-19T07:32:37.910Z,17.83
2019-05-19T07:35:07.421Z,17.00
2019-05-19T07:37:35.874Z,15.10
2019-05-19T07:40:06.541Z,15.10
2019-05-19T07:42:35.145Z,17.70
2019-05-19T07:45:04.312Z,16.63
2019-05-19T07:47:38.034Z,15.43
2019-05-19T07:50:06.718Z,15.80
2019-05-19T07:52:35.247Z,15.87
2019-05-19T07:55:06.528Z,16.73
2019-05-19T07:57:34.965Z,14.80
2019-05-19T08:00:04.789Z,15.10
2019-05-19T08:02:33.501Z,16.00
2019-05-19T08:05:02.018Z,14.80
2019-05-19T08:07:30.765Z,17.05
2019-05-19T08:09:59.217Z,15.33
2019-05-19T08:15:10.338Z,15.17
2019-05-19T08:17:38.787Z,14.03
2019-05-19T08:20:07.965Z,14.47
2019-05-19T08:22:36.396Z,14.27
2019-05-19T08:25:06.849Z,14.00
2019-05-19T08:27:35.350Z,13.90
2019-05-19T08:30:05.803Z,15.00
2019-05-19T08:32:34.238Z,15.57
2019-05-19T08:35:04.382Z,16.30
2019-05-19T08:37:33.053Z,13.23
2019-05-19T08:44:26.940Z,14.60
2019-05-19T08:46:55.407Z,15.70
2019-05-19T08:49:23.942Z,15.00
2019-05-19T08:51:52.464Z,14.90
2019-05-19T08:54:20.901Z,13.80
2019-05-19T08:56:49.345Z,15.40
2019-05-19T08:59:17.843Z,14.83
2019-05-19T09:01:46.307Z,15.30
2019-05-19T09:04:14.747Z,14.07
2019-05-19T09:06:43.206Z,14.40
2019-05-19T09:09:11.814Z,14.50
2019-05-19T09:11:40.417Z,15.30
2019-05-19T09:14:10.258Z,16.43
2019-05-19T09:16:38.705Z,14.00
2019-05-19T09:19:07.234Z,14.40
2019-05-19T09:21:35.738Z,14.93
2019-05-19T09:24:05.621Z,15.53
2019-05-19T09:26:34.061Z,14.40
2019-05-19T09:29:02.506Z,14.33
2019-05-19T09:31:30.951Z,15.87
2019-05-19T09:33:59.407Z,14.30
2019-05-19T09:36:27.843Z,15.00
2019-05-19T09:38:56.283Z,13.00
2019-05-19T09:41:24.955Z,14.27
2019-05-19T09:43:53.427Z,13.73
2019-05-19T09:46:21.858Z,13.57
2019-05-19T09:48:51.972Z,13.17
2019-05-19T09:51:20.458Z,13.80
2019-05-19T09:53:48.883Z,14.00
2019-05-19T09:56:17.331Z,13.70
2019-05-19T09:58:45.888Z,13.40
2019-05-19T10:01:14.406Z,12.43
2019-05-19T10:03:42.845Z,13.00
2019-05-19T10:06:11.300Z,12.30
2019-05-19T10:08:39.865Z,14.03
2019-05-19T10:11:14.139Z,13.10
2019-05-19T10:13:42.595Z,13.57
2019-05-19T10:16:11.054Z,12.90
2019-05-19T10:18:39.713Z,14.20
2019-05-19T10:21:08.298Z,12.40
2019-05-19T10:23:36.766Z,11.20
2019-05-19T10:26:05.477Z,12.10
2019-05-19T10:28:33.934Z,12.03
2019-05-19T10:31:02.477Z,11.10
2019-05-19T10:33:30.920Z,11.40
2019-05-19T10:35:59.355Z,10.83
2019-05-19T10:38:31.209Z,11.50
2019-05-19T10:40:59.790Z,10.90
2019-05-19T10:43:28.392Z,11.10
2019-05-19T10:45:59.725Z,9.97
2019-05-19T10:48:28.549Z,11.00
2019-05-19T10:50:56.990Z,10.50
2019-05-19T10:53:27.129Z,9.87
2019-05-19T10:55:55.697Z,12.50
2019-05-19T10:58:24.210Z,10.00
2019-05-19T11:00:52.632Z,10.33
2019-05-19T11:03:21.272Z,9.97
2019-05-19T11:05:49.758Z,8.20
2019-05-19T11:08:19.749Z,9.70
2019-05-19T11:10:48.280Z,10.60
2019-05-19T11:13:16.830Z,9.20
2019-05-19T11:15:45.284Z,8.50
2019-05-19T11:18:13.739Z,9.20
2019-05-19T11:20:42.305Z,10.03
2019-05-19T11:23:10.767Z,10.13
2019-05-19T11:25:51.122Z,9.87
2019-05-19T11:28:09.394Z,9.93
2019-05-19T11:30:37.886Z,9.70
2019-05-19T11:33:06.384Z,10.13
2019-05-19T11:35:34.900Z,9.33
2019-05-19T11:38:06.926Z,9.50
2019-05-19T11:40:36.649Z,9.83
2019-05-19T11:43:06.513Z,9.47
2019-05-19T11:45:35.088Z,12.23
2019-05-19T11:48:03.780Z,10.37
2019-05-19T11:50:33.641Z,10.20
2019-05-19T11:53:02.069Z,11.43
2019-05-19T11:55:30.517Z,10.47
2019-05-19T11:57:59.596Z,10.50
2019-05-19T12:00:28.180Z,10.73
2019-05-19T12:02:56.641Z,10.47
2019-05-19T12:05:25.233Z,10.33
2019-05-19T12:07:53.756Z,9.80
2019-05-19T12:10:22.211Z,11.30
2019-05-19T12:12:50.640Z,10.67
2019-05-19T12:15:20.224Z,10.97
2019-05-19T12:17:49.086Z,10.20
2019-05-19T12:20:17.565Z,10.40
2019-05-19T12:22:46.142Z,10.20
2019-05-19T12:25:14.815Z,11.07
2019-05-19T12:27:43.246Z,11.40
2019-05-19T12:30:17.563Z,11.13
2019-05-19T12:32:46.082Z,10.50
2019-05-19T12:35:17.698Z,11.80
2019-05-19T12:37:46.231Z,10.93
2019-05-19T12:40:18.041Z,10.27
2019-05-19T12:42:46.528Z,11.30
2019-05-19T12:45:18.196Z,10.77
2019-05-19T12:47:46.756Z,11.70
2019-05-19T12:50:15.703Z,11.17
2019-05-19T12:52:44.161Z,11.90
2019-05-19T12:55:12.976Z,9.50
2019-05-19T12:57:41.500Z,9.83
2019-05-19T13:00:10.365Z,10.60
2019-05-19T13:02:38.804Z,10.23
2019-05-19T13:05:07.980Z,11.23
2019-05-19T13:07:36.437Z,10.30
2019-05-19T13:10:09.103Z,11.30
2019-05-19T13:12:37.545Z,11.30
2019-05-19T13:15:07.999Z,11.73
2019-05-19T13:17:36.449Z,10.73
2019-05-19T13:20:06.753Z,12.20
2019-05-19T13:22:35.212Z,11.67
2019-05-19T13:25:05.152Z,10.37
2019-05-19T13:27:33.691Z,9.77
2019-05-19T13:30:02.208Z,10.67
2019-05-19T13:32:30.652Z,12.03
2019-05-19T13:34:59.085Z,11.83
2019-05-19T13:37:27.519Z,12.80
2019-05-19T13:39:56.062Z,14.00
2019-05-19T13:42:24.517Z,12.13
2019-05-19T13:44:53.019Z,11.90
2019-05-19T13:47:21.467Z,11.97
2019-05-19T13:49:49.921Z,11.60
2019-05-19T13:52:18.500Z,10.37
2019-05-19T13:54:46.989Z,12.60
2019-05-19T13:57:15.492Z,11.67
2019-05-19T13:59:43.952Z,11.30
2019-05-19T14:02:12.452Z,10.90
2019-05-19T14:04:40.910Z,12.13
2019-05-19T14:07:09.347Z,12.37
2019-05-19T14:09:41.312Z,11.37
2019-05-19T14:12:09.749Z,11.30
2019-05-19T14:14:50.498Z,11.93
2019-05-19T14:17:18.987Z,11.60
2019-05-19T14:19:47.616Z,10.40
2019-05-19T14:22:16.130Z,10.60
2019-05-19T14:24:44.682Z,11.63
2019-05-19T14:27:28.402Z,10.03
2019-05-19T14:29:45.103Z,11.10
2019-05-19T14:32:13.699Z,10.93
2019-05-19T14:34:42.195Z,11.33
2019-05-19T14:37:10.783Z,10.20
2019-05-19T14:39:39.396Z,10.50
2019-05-19T14:42:09.631Z,10.30
2019-05-19T14:44:38.243Z,11.20
2019-05-19T14:47:08.181Z,11.97
2019-05-19T14:49:36.636Z,10.90
2019-05-19T14:52:06.683Z,9.53
2019-05-19T14:54:35.681Z,10.60
2019-05-19T14:57:04.110Z,10.53
2019-05-19T14:59:32.637Z,10.90
2019-05-19T15:02:01.088Z,10.93
2019-05-19T15:04:29.526Z,9.67
2019-05-19T15:06:57.981Z,10.93
2019-05-19T15:09:26.410Z,10.10
2019-05-19T15:11:54.875Z,10.40
2019-05-19T15:14:26.213Z,10.70
2019-05-19T15:16:54.664Z,11.40
2019-05-19T15:19:23.114Z,10.17
2019-05-19T15:21:51.680Z,9.60
2019-05-19T15:24:20.136Z,10.70
2019-05-19T15:26:48.596Z,10.33
2019-05-19T15:31:52.341Z,10.03
2019-05-19T15:34:20.859Z,11.73
2019-05-19T15:36:49.302Z,9.00
2019-05-19T15:39:17.734Z,9.90
2019-05-19T15:41:46.372Z,9.63
2019-05-19T15:44:14.991Z,10.13
2019-05-19T15:46:43.452Z,9.73
2019-05-19T15:49:11.995Z,9.97
2019-05-19T15:51:40.517Z,10.10
2019-05-19T15:54:08.967Z,10.37
2019-05-19T15:56:37.499Z,9.70
2019-05-19T15:59:05.992Z,10.70
2019-05-19T16:01:34.564Z,10.60
2019-05-19T16:04:03.013Z,10.83
2019-05-19T16:06:31.509Z,10.90
2019-05-19T16:09:01.170Z,10.20
2019-05-19T16:11:29.611Z,10.90
2019-05-19T16:13:58.067Z,9.23
2019-05-19T16:16:26.590Z,10.60
2019-05-19T16:18:55.044Z,9.40
2019-05-19T16:21:23.534Z,10.93
2019-05-19T16:23:52.337Z,10.33
2019-05-19T16:26:20.768Z,9.40
2019-05-19T16:28:49.221Z,10.37
2019-05-19T16:31:17.768Z,11.07
2019-05-19T16:33:49.255Z,9.30
2019-05-19T16:36:17.889Z,9.87
2019-05-19T16:38:46.348Z,10.03
2019-05-19T16:41:14.815Z,9.87
2019-05-19T16:43:43.314Z,9.60
2019-05-19T16:46:11.741Z,8.33
2019-05-19T16:48:40.199Z,9.60
2019-05-19T16:51:08.698Z,11.67
2019-05-19T16:53:37.797Z,10.93
2019-05-19T16:56:06.233Z,10.10
2019-05-19T16:58:44.882Z,9.60
2019-05-19T17:01:05.142Z,9.93
2019-05-19T17:03:33.603Z,10.67
2019-05-19T17:06:02.030Z,10.30
2019-05-19T17:08:30.601Z,10.47
2019-05-19T17:10:59.044Z,10.40
2019-05-19T17:13:27.478Z,9.50
2019-05-19T17:15:56.606Z,9.60
2019-05-19T17:18:25.055Z,9.30
2019-05-19T17:20:54.951Z,9.80
2019-05-19T17:23:23.385Z,9.77
2019-05-19T17:25:51.822Z,10.97
2019-05-19T17:28:20.277Z,11.90
2019-05-19T17:30:48.722Z,11.80
2019-05-19T17:39:21.462Z,12.40
2019-05-19T17:41:50.074Z,12.30
2019-05-19T17:44:18.529Z,12.70
2019-05-19T17:46:46.960Z,12.97
2019-05-19T17:49:15.405Z,13.13
2019-05-19T17:51:44.285Z,11.43
2019-05-19T17:54:12.715Z,12.67
2019-05-19T17:56:41.965Z,13.07
2019-05-19T17:59:16.639Z,12.47
2019-05-19T18:01:41.758Z,11.67
2019-05-19T18:04:10.197Z,12.60
2019-05-19T18:06:38.629Z,13.57
2019-05-19T18:09:07.092Z,13.17
2019-05-19T18:11:35.702Z,12.33
2019-05-19T18:14:04.349Z,11.90
2019-05-19T18:16:33.049Z,11.53
2019-05-19T18:19:01.476Z,12.00
2019-05-19T18:21:29.933Z,11.37
2019-05-19T18:23:58.373Z,11.30
2019-05-19T18:26:26.822Z,11.93
2019-05-19T18:28:56.046Z,13.33
2019-05-19T18:31:24.872Z,13.50
2019-05-19T18:33:53.353Z,13.20
2019-05-19T18:36:21.793Z,12.93
2019-05-19T18:38:50.225Z,13.97
2019-05-19T18:41:18.706Z,13.03
2019-05-19T18:43:47.212Z,13.80
2019-05-19T18:46:15.657Z,12.63
2019-05-19T18:48:44.092Z,14.83
2019-05-19T18:52:33.169Z,13.90
2019-05-19T18:55:01.682Z,14.17
2019-05-19T18:57:30.125Z,14.60
2019-05-19T19:00:01.310Z,14.00
2019-05-19T19:02:32.667Z,14.03
2019-05-19T19:05:01.109Z,14.90
2019-05-19T19:07:34.373Z,14.33
2019-05-19T19:10:03.833Z,15.80
2019-05-19T19:12:32.273Z,14.80
2019-05-19T19:15:00.898Z,16.73
2019-05-19T19:17:30.979Z,15.00
2019-05-19T19:19:59.620Z,14.60
2019-05-19T19:22:28.210Z,12.83
2019-05-19T19:24:56.645Z,15.03
2019-05-19T19:27:25.170Z,14.47
2019-05-19T19:30:03.122Z,15.27
2019-05-19T19:32:23.788Z,16.30
2019-05-19T19:34:52.230Z,15.73
2019-05-19T19:37:21.647Z,14.87
2019-05-19T19:39:50.157Z,16.00
2019-05-19T19:42:19.048Z,16.40
2019-05-19T19:44:47.483Z,17.67
2019-05-19T19:47:15.930Z,17.47
2019-05-19T19:49:44.357Z,17.50
2019-05-19T19:52:12.806Z,16.17
2019-05-19T19:54:41.314Z,18.00
2019-05-19T19:57:09.916Z,18.27
2019-05-19T19:59:39.793Z,17.03
2019-05-19T20:02:08.385Z,16.23
2019-05-19T20:04:36.932Z,17.13
2019-05-19T20:07:06.926Z,18.33
2019-05-19T20:09:35.353Z,20.07
2019-05-19T20:12:03.790Z,17.40
2019-05-19T20:14:32.281Z,19.57
2019-05-19T20:17:00.733Z,17.93
2019-05-19T20:19:29.269Z,17.83
2019-05-19T20:21:57.871Z,19.70
2019-05-19T20:24:27.785Z,18.20
2019-05-19T20:26:56.213Z,19.03
2019-05-19T20:29:24.704Z,19.80
2019-05-19T20:31:53.133Z,19.70
2019-05-19T20:34:23.122Z,19.67
2019-05-19T20:36:51.627Z,19.37
2019-05-19T20:39:20.219Z,20.53
2019-05-19T20:41:48.674Z,20.00
2019-05-19T20:44:17.126Z,20.13
2019-05-19T20:46:45.561Z,26.33
2019-05-19T20:49:14.010Z,22.87
2019-05-19T20:51:42.446Z,24.97
2019-05-19T20:54:11.007Z,22.83
2019-05-19T20:56:39.463Z,22.70
2019-05-19T20:59:07.905Z,23.37
2019-05-19T21:01:36.426Z,23.80
2019-05-19T21:04:04.930Z,22.73
2019-05-19T21:06:33.362Z,23.00
2019-05-19T21:09:04.090Z,23.77
2019-05-19T21:11:32.522Z,24.63
2019-05-19T21:14:00.994Z,26.27
2019-05-19T21:16:29.467Z,24.57
2019-05-19T21:18:57.941Z,24.00
2019-05-19T21:21:26.401Z,23.47
2019-05-19T21:23:56.021Z,22.90
2019-05-19T21:26:24.454Z,24.63
2019-05-19T21:28:52.898Z,23.63
2019-05-19T21:31:21.354Z,23.97
2019-05-19T21:33:49.788Z,24.27
2019-05-19T21:36:18.233Z,22.07
2019-05-19T21:38:46.707Z,23.90
2019-05-19T21:41:15.161Z,22.80
2019-05-19T21:43:43.594Z,23.83
2019-05-19T21:46:12.034Z,24.07
2019-05-19T21:48:41.032Z,24.57
2019-05-19T21:51:09.475Z,25.03
2019-05-19T21:53:37.913Z,23.43
2019-05-19T21:56:06.354Z,23.43
2019-05-19T21:58:34.790Z,24.30
2019-05-19T22:01:03.250Z,24.97
2019-05-19T22:03:31.743Z,23.70
2019-05-19T22:06:00.182Z,23.53
2019-05-19T22:08:28.618Z,25.37
2019-05-19T22:10:57.057Z,26.53
2019-05-19T22:13:25.497Z,26.30
2019-05-19T22:15:53.946Z,25.60
2019-05-19T22:18:22.372Z,25.37
2019-05-19T22:20:50.864Z,25.77
2019-05-19T22:23:19.350Z,25.20
2019-05-19T22:25:47.990Z,27.17
2019-05-19T22:28:16.426Z,25.37
2019-05-19T22:30:44.934Z,27.97
2019-05-19T22:33:13.361Z,27.87
2019-05-19T22:35:41.824Z,29.60
2019-05-19T22:38:10.314Z,26.23
2019-05-19T22:40:38.762Z,28.97
2019-05-19T22:43:07.202Z,30.07
2019-05-19T22:45:35.630Z,28.83
2019-05-19T22:48:04.071Z,31.17
2019-05-19T22:50:32.511Z,27.13
2019-05-19T22:53:01.066Z,31.90
2019-05-19T22:55:29.499Z,30.70
2019-05-19T22:57:57.981Z,32.60
2019-05-19T23:00:26.955Z,29.30
2019-05-19T23:02:55.462Z,32.27
2019-05-19T23:05:23.898Z,32.17
2019-05-19T23:07:52.337Z,30.53
2019-05-19T23:10:21.110Z,28.27
2019-05-19T23:12:49.558Z,30.00
2019-05-19T23:15:18.459Z,30.83
2019-05-19T23:17:46.905Z,29.70
2019-05-19T23:20:15.879Z,33.03
2019-05-19T23:22:44.314Z,30.40
2019-05-19T23:25:12.914Z,30.90
2019-05-19T23:27:41.366Z,32.00
2019-05-19T23:30:10.850Z,31.70
2019-05-19T23:32:39.291Z,32.30
2019-05-19T23:35:07.894Z,31.03
2019-05-19T23:37:36.329Z,30.00
2019-05-19T23:40:09.062Z,31.17
2019-05-19T23:42:37.506Z,30.70
2019-05-19T23:45:07.882Z,30.33
2019-05-19T23:47:36.327Z,31.13
2019-05-19T23:50:06.480Z,34.10
2019-05-19T23:52:34.913Z,31.83
2019-05-19T23:55:04.798Z,33.30
2019-05-19T23:57:33.237Z,31.47
